sensor_id;sensor_type;location;lat;lon;timestamp;P1;durP1;ratioP1;P2;durP2;ratioP2
47960;SDS011;33721;48.852;9.936;2022-07-10T00:00:34;9.32;;;5.72;;
47960;SDS011;33721;48.852;9.936;2022-07-10T00:03:03;6.75;;;5.18;;
47960;SDS011;33721;48.852;9.936;2022-07-10T00:05:29;8.65;;;4.93;;
47960;SDS011;33721;48.852;9.936;2022-07-10T00:07:56;7.72;;;5.38;;
47960;SDS011;33721;48.852;9.936;2022-07-10T00:10:22;7.93;;;5.22;;
47960;SDS011;33721;48.852;9.936;2022-07-10T00:12:48;8.05;;;5.47;;
47960;SDS011;33721;48.852;9.936;2022-07-10T00:15:16;8.15;;;5.47;;
47960;SDS011;33721;48.852;9.936;2022-07-10T00:17:42;7.28;;;5.30;;
47960;SDS011;33721;48.852;9.936;2022-07-10T00:20:09;9.90;;;5.47;;
47960;SDS011;33721;48.852;9.936;2022-07-10T00:22:36;9.45;;;5.82;;
47960;SDS011;33721;48.852;9.936;2022-07-10T00:25:03;10.65;;;5.75;;
47960;SDS011;33721;48.852;9.936;2022-07-10T00:27:30;11.88;;;5.75;;
47960;SDS011;33721;48.852;9.936;2022-07-10T00:29:57;9.98;;;6.38;;
47960;SDS011;33721;48.852;9.936;2022-07-10T00:32:23;10.82;;;6.30;;
47960;SDS011;33721;48.852;9.936;2022-07-10T00:34:49;8.15;;;5.93;;
47960;SDS011;33721;48.852;9.936;2022-07-10T00:37:16;10.13;;;5.85;;
47960;SDS011;33721;48.852;9.936;2022-07-10T00:39:41;8.68;;;6.40;;
47960;SDS011;33721;48.852;9.936;2022-07-10T00:44:38;11.43;;;6.13;;
47960;SDS011;33721;48.852;9.936;2022-07-10T00:47:05;10.20;;;5.90;;
47960;SDS011;33721;48.852;9.936;2022-07-10T00:49:32;8.68;;;6.22;;
47960;SDS011;33721;48.852;9.936;2022-07-10T00:51:58;11.13;;;6.80;;
47960;SDS011;33721;48.852;9.936;2022-07-10T00:54:26;9.88;;;6.30;;
47960;SDS011;33721;48.852;9.936;2022-07-10T00:56:52;13.68;;;6.15;;
47960;SDS011;33721;48.852;9.936;2022-07-10T00:59:18;8.63;;;6.47;;
47960;SDS011;33721;48.852;9.936;2022-07-10T01:01:45;10.60;;;6.05;;
47960;SDS011;33721;48.852;9.936;2022-07-10T01:04:11;9.57;;;5.88;;
47960;SDS011;33721;48.852;9.936;2022-07-10T01:06:36;8.23;;;5.78;;
47960;SDS011;33721;48.852;9.936;2022-07-10T01:09:02;9.63;;;6.07;;
47960;SDS011;33721;48.852;9.936;2022-07-10T01:11:28;8.75;;;6.00;;
47960;SDS011;33721;48.852;9.936;2022-07-10T01:13:55;12.38;;;6.93;;
47960;SDS011;33721;48.852;9.936;2022-07-10T01:16:20;11.20;;;6.57;;
47960;SDS011;33721;48.852;9.936;2022-07-10T01:18:47;10.50;;;6.75;;
47960;SDS011;33721;48.852;9.936;2022-07-10T01:21:25;12.00;;;6.97;;
47960;SDS011;33721;48.852;9.936;2022-07-10T01:23:52;10.25;;;6.63;;
47960;SDS011;33721;48.852;9.936;2022-07-10T01:26:19;11.18;;;6.75;;
47960;SDS011;33721;48.852;9.936;2022-07-10T01:28:49;9.70;;;7.32;;
47960;SDS011;33721;48.852;9.936;2022-07-10T01:31:19;11.82;;;7.00;;
47960;SDS011;33721;48.852;9.936;2022-07-10T01:33:46;12.63;;;7.38;;
47960;SDS011;33721;48.852;9.936;2022-07-10T01:36:12;10.13;;;6.50;;
47960;SDS011;33721;48.852;9.936;2022-07-10T01:38:39;12.00;;;7.40;;
47960;SDS011;33721;48.852;9.936;2022-07-10T01:41:05;11.65;;;7.78;;
47960;SDS011;33721;48.852;9.936;2022-07-10T01:43:31;11.38;;;7.53;;
47960;SDS011;33721;48.852;9.936;2022-07-10T01:45:57;11.32;;;6.25;;
47960;SDS011;33721;48.852;9.936;2022-07-10T01:48:22;9.18;;;6.40;;
47960;SDS011;33721;48.852;9.936;2022-07-10T01:50:48;11.60;;;7.70;;
47960;SDS011;33721;48.852;9.936;2022-07-10T01:53:13;12.85;;;7.63;;
47960;SDS011;33721;48.852;9.936;2022-07-10T01:55:39;10.00;;;6.97;;
47960;SDS011;33721;48.852;9.936;2022-07-10T01:58:05;10.52;;;7.22;;
47960;SDS011;33721;48.852;9.936;2022-07-10T02:00:30;11.00;;;6.50;;
47960;SDS011;33721;48.852;9.936;2022-07-10T02:02:56;9.25;;;6.70;;
47960;SDS011;33721;48.852;9.936;2022-07-10T02:06:00;10.57;;;6.75;;
47960;SDS011;33721;48.852;9.936;2022-07-10T02:08:26;9.85;;;6.75;;
47960;SDS011;33721;48.852;9.936;2022-07-10T02:10:52;11.43;;;6.80;;
47960;SDS011;33721;48.852;9.936;2022-07-10T02:13:17;11.90;;;6.57;;
47960;SDS011;33721;48.852;9.936;2022-07-10T02:15:45;10.10;;;6.70;;
47960;SDS011;33721;48.852;9.936;2022-07-10T02:18:12;11.73;;;6.88;;
47960;SDS011;33721;48.852;9.936;2022-07-10T02:20:38;9.30;;;7.07;;
47960;SDS011;33721;48.852;9.936;2022-07-10T02:23:03;9.43;;;7.00;;
47960;SDS011;33721;48.852;9.936;2022-07-10T02:25:29;11.18;;;7.40;;
47960;SDS011;33721;48.852;9.936;2022-07-10T02:27:55;10.48;;;6.97;;
47960;SDS011;33721;48.852;9.936;2022-07-10T02:30:20;12.57;;;7.80;;
47960;SDS011;33721;48.852;9.936;2022-07-10T02:32:46;10.80;;;7.80;;
47960;SDS011;33721;48.852;9.936;2022-07-10T02:35:11;12.32;;;8.00;;
47960;SDS011;33721;48.852;9.936;2022-07-10T02:37:37;12.00;;;7.65;;
47960;SDS011;33721;48.852;9.936;2022-07-10T02:40:03;10.98;;;7.93;;
47960;SDS011;33721;48.852;9.936;2022-07-10T02:42:29;11.23;;;7.40;;
47960;SDS011;33721;48.852;9.936;2022-07-10T02:44:55;12.43;;;7.30;;
47960;SDS011;33721;48.852;9.936;2022-07-10T02:47:21;11.38;;;7.55;;
47960;SDS011;33721;48.852;9.936;2022-07-10T02:49:46;10.75;;;7.25;;
47960;SDS011;33721;48.852;9.936;2022-07-10T02:52:12;12.50;;;7.80;;
47960;SDS011;33721;48.852;9.936;2022-07-10T02:54:37;10.90;;;7.55;;
47960;SDS011;33721;48.852;9.936;2022-07-10T02:57:03;12.73;;;8.30;;
47960;SDS011;33721;48.852;9.936;2022-07-10T02:59:29;14.35;;;7.97;;
47960;SDS011;33721;48.852;9.936;2022-07-10T03:01:55;13.95;;;8.38;;
47960;SDS011;33721;48.852;9.936;2022-07-10T03:04:21;12.57;;;8.68;;
47960;SDS011;33721;48.852;9.936;2022-07-10T03:06:47;13.32;;;8.75;;
47960;SDS011;33721;48.852;9.936;2022-07-10T03:09:12;12.50;;;8.02;;
47960;SDS011;33721;48.852;9.936;2022-07-10T03:11:38;12.60;;;8.45;;
47960;SDS011;33721;48.852;9.936;2022-07-10T03:14:04;12.00;;;7.80;;
47960;SDS011;33721;48.852;9.936;2022-07-10T03:16:31;15.48;;;8.75;;
47960;SDS011;33721;48.852;9.936;2022-07-10T03:18:56;14.35;;;9.18;;
47960;SDS011;33721;48.852;9.936;2022-07-10T03:21:22;17.98;;;9.32;;
47960;SDS011;33721;48.852;9.936;2022-07-10T03:23:48;17.27;;;9.82;;
47960;SDS011;33721;48.852;9.936;2022-07-10T03:26:14;13.63;;;8.88;;
47960;SDS011;33721;48.852;9.936;2022-07-10T03:28:39;16.58;;;9.63;;
47960;SDS011;33721;48.852;9.936;2022-07-10T03:31:06;14.40;;;8.80;;
47960;SDS011;33721;48.852;9.936;2022-07-10T03:33:31;14.68;;;9.48;;
47960;SDS011;33721;48.852;9.936;2022-07-10T03:35:57;16.05;;;9.25;;
47960;SDS011;33721;48.852;9.936;2022-07-10T03:38:23;16.48;;;9.45;;
47960;SDS011;33721;48.852;9.936;2022-07-10T03:40:48;16.08;;;9.20;;
47960;SDS011;33721;48.852;9.936;2022-07-10T03:43:14;17.92;;;9.40;;
47960;SDS011;33721;48.852;9.936;2022-07-10T03:45:40;16.75;;;8.82;;
47960;SDS011;33721;48.852;9.936;2022-07-10T03:48:06;13.23;;;9.45;;
47960;SDS011;33721;48.852;9.936;2022-07-10T03:50:32;13.65;;;9.05;;
47960;SDS011;33721;48.852;9.936;2022-07-10T03:52:58;15.20;;;9.15;;
47960;SDS011;33721;48.852;9.936;2022-07-10T03:55:24;14.95;;;8.85;;
47960;SDS011;33721;48.852;9.936;2022-07-10T03:57:50;13.48;;;8.18;;
47960;SDS011;33721;48.852;9.936;2022-07-10T04:00:18;14.02;;;8.77;;
47960;SDS011;33721;48.852;9.936;2022-07-10T04:02:46;15.05;;;9.55;;
47960;SDS011;33721;48.852;9.936;2022-07-10T04:05:13;13.98;;;9.38;;
47960;SDS011;33721;48.852;9.936;2022-07-10T04:07:39;19.60;;;9.00;;
47960;SDS011;33721;48.852;9.936;2022-07-10T04:10:05;15.27;;;8.85;;
47960;SDS011;33721;48.852;9.936;2022-07-10T04:12:31;17.77;;;8.70;;
47960;SDS011;33721;48.852;9.936;2022-07-10T04:14:57;12.90;;;8.75;;
47960;SDS011;33721;48.852;9.936;2022-07-10T04:17:23;15.38;;;9.05;;
47960;SDS011;33721;48.852;9.936;2022-07-10T04:19:48;15.95;;;9.02;;
47960;SDS011;33721;48.852;9.936;2022-07-10T04:22:14;20.05;;;8.95;;
47960;SDS011;33721;48.852;9.936;2022-07-10T04:24:39;15.52;;;8.88;;
47960;SDS011;33721;48.852;9.936;2022-07-10T04:27:05;13.93;;;8.85;;
47960;SDS011;33721;48.852;9.936;2022-07-10T04:29:31;17.95;;;9.77;;
47960;SDS011;33721;48.852;9.936;2022-07-10T04:31:57;15.32;;;8.68;;
47960;SDS011;33721;48.852;9.936;2022-07-10T04:34:23;16.15;;;8.80;;
47960;SDS011;33721;48.852;9.936;2022-07-10T04:36:48;14.93;;;9.02;;
47960;SDS011;33721;48.852;9.936;2022-07-10T04:39:14;11.75;;;7.50;;
47960;SDS011;33721;48.852;9.936;2022-07-10T04:41:40;14.35;;;8.25;;
47960;SDS011;33721;48.852;9.936;2022-07-10T04:44:05;14.18;;;7.80;;
47960;SDS011;33721;48.852;9.936;2022-07-10T04:46:31;16.13;;;8.32;;
47960;SDS011;33721;48.852;9.936;2022-07-10T04:48:57;15.88;;;8.38;;
47960;SDS011;33721;48.852;9.936;2022-07-10T04:51:22;11.23;;;7.65;;
47960;SDS011;33721;48.852;9.936;2022-07-10T04:53:48;12.07;;;7.30;;
47960;SDS011;33721;48.852;9.936;2022-07-10T04:56:15;15.00;;;7.95;;
47960;SDS011;33721;48.852;9.936;2022-07-10T04:58:40;16.65;;;8.25;;
47960;SDS011;33721;48.852;9.936;2022-07-10T05:01:06;11.90;;;7.72;;
47960;SDS011;33721;48.852;9.936;2022-07-10T05:03:32;13.30;;;7.63;;
47960;SDS011;33721;48.852;9.936;2022-07-10T05:05:58;11.95;;;7.13;;
47960;SDS011;33721;48.852;9.936;2022-07-10T05:08:23;14.60;;;6.97;;
47960;SDS011;33721;48.852;9.936;2022-07-10T05:10:49;12.85;;;6.35;;
47960;SDS011;33721;48.852;9.936;2022-07-10T05:13:15;10.85;;;6.07;;
47960;SDS011;33721;48.852;9.936;2022-07-10T05:15:40;9.25;;;6.13;;
47960;SDS011;33721;48.852;9.936;2022-07-10T05:18:06;9.20;;;6.13;;
47960;SDS011;33721;48.852;9.936;2022-07-10T05:20:32;10.25;;;6.28;;
47960;SDS011;33721;48.852;9.936;2022-07-10T05:22:58;10.70;;;5.60;;
47960;SDS011;33721;48.852;9.936;2022-07-10T05:25:24;9.25;;;5.00;;
47960;SDS011;33721;48.852;9.936;2022-07-10T05:27:51;6.50;;;4.57;;
47960;SDS011;33721;48.852;9.936;2022-07-10T05:30:17;10.95;;;4.72;;
47960;SDS011;33721;48.852;9.936;2022-07-10T05:32:43;16.65;;;5.35;;
47960;SDS011;33721;48.852;9.936;2022-07-10T05:35:10;16.27;;;5.43;;
47960;SDS011;33721;48.852;9.936;2022-07-10T05:37:36;9.73;;;5.18;;
47960;SDS011;33721;48.852;9.936;2022-07-10T05:40:02;9.80;;;4.90;;
47960;SDS011;33721;48.852;9.936;2022-07-10T05:42:28;12.15;;;4.97;;
47960;SDS011;33721;48.852;9.936;2022-07-10T05:44:54;9.55;;;4.80;;
47960;SDS011;33721;48.852;9.936;2022-07-10T05:47:20;12.25;;;4.95;;
47960;SDS011;33721;48.852;9.936;2022-07-10T05:49:46;9.10;;;4.63;;
47960;SDS011;33721;48.852;9.936;2022-07-10T05:52:11;8.02;;;4.63;;
47960;SDS011;33721;48.852;9.936;2022-07-10T05:54:37;8.18;;;4.45;;
47960;SDS011;33721;48.852;9.936;2022-07-10T05:57:03;9.75;;;3.85;;
47960;SDS011;33721;48.852;9.936;2022-07-10T05:59:32;8.85;;;3.50;;
47960;SDS011;33721;48.852;9.936;2022-07-10T06:01:59;7.97;;;3.53;;
47960;SDS011;33721;48.852;9.936;2022-07-10T06:04:25;8.63;;;3.90;;
47960;SDS011;33721;48.852;9.936;2022-07-10T06:06:51;7.65;;;3.58;;
47960;SDS011;33721;48.852;9.936;2022-07-10T06:09:17;6.72;;;2.92;;
47960;SDS011;33721;48.852;9.936;2022-07-10T06:11:43;8.88;;;3.00;;
47960;SDS011;33721;48.852;9.936;2022-07-10T06:14:10;16.42;;;2.80;;
47960;SDS011;33721;48.852;9.936;2022-07-10T06:16:39;5.63;;;2.47;;
47960;SDS011;33721;48.852;9.936;2022-07-10T06:19:05;13.52;;;3.00;;
47960;SDS011;33721;48.852;9.936;2022-07-10T06:21:30;4.45;;;2.63;;
47960;SDS011;33721;48.852;9.936;2022-07-10T06:23:56;6.57;;;2.45;;
47960;SDS011;33721;48.852;9.936;2022-07-10T06:26:22;10.65;;;2.38;;
47960;SDS011;33721;48.852;9.936;2022-07-10T06:28:48;8.85;;;3.10;;
47960;SDS011;33721;48.852;9.936;2022-07-10T06:31:14;7.75;;;2.85;;
47960;SDS011;33721;48.852;9.936;2022-07-10T06:33:39;9.55;;;3.17;;
47960;SDS011;33721;48.852;9.936;2022-07-10T06:36:05;14.35;;;3.10;;
47960;SDS011;33721;48.852;9.936;2022-07-10T06:38:31;6.80;;;3.00;;
47960;SDS011;33721;48.852;9.936;2022-07-10T06:40:57;9.40;;;2.97;;
47960;SDS011;33721;48.852;9.936;2022-07-10T06:43:22;3.75;;;2.00;;
47960;SDS011;33721;48.852;9.936;2022-07-10T06:45:48;5.50;;;2.33;;
47960;SDS011;33721;48.852;9.936;2022-07-10T06:48:14;8.48;;;2.47;;
47960;SDS011;33721;48.852;9.936;2022-07-10T06:50:40;6.43;;;1.85;;
47960;SDS011;33721;48.852;9.936;2022-07-10T06:53:06;6.35;;;1.55;;
47960;SDS011;33721;48.852;9.936;2022-07-10T06:55:32;4.50;;;2.05;;
47960;SDS011;33721;48.852;9.936;2022-07-10T06:57:58;4.70;;;1.85;;
47960;SDS011;33721;48.852;9.936;2022-07-10T07:00:24;5.45;;;1.98;;
47960;SDS011;33721;48.852;9.936;2022-07-10T07:02:51;10.88;;;2.00;;
47960;SDS011;33721;48.852;9.936;2022-07-10T07:05:17;9.88;;;2.08;;
47960;SDS011;33721;48.852;9.936;2022-07-10T07:07:43;7.38;;;1.98;;
47960;SDS011;33721;48.852;9.936;2022-07-10T07:10:09;7.75;;;1.67;;
47960;SDS011;33721;48.852;9.936;2022-07-10T07:12:35;3.45;;;1.63;;
47960;SDS011;33721;48.852;9.936;2022-07-10T07:15:01;6.90;;;1.60;;
47960;SDS011;33721;48.852;9.936;2022-07-10T07:17:28;8.43;;;1.65;;
47960;SDS011;33721;48.852;9.936;2022-07-10T07:20:01;3.13;;;1.70;;
47960;SDS011;33721;48.852;9.936;2022-07-10T07:22:45;2.88;;;1.60;;
47960;SDS011;33721;48.852;9.936;2022-07-10T07:25:29;4.90;;;1.70;;
47960;SDS011;33721;48.852;9.936;2022-07-10T07:27:55;2.20;;;1.20;;
47960;SDS011;33721;48.852;9.936;2022-07-10T07:30:21;7.50;;;1.50;;
47960;SDS011;33721;48.852;9.936;2022-07-10T07:32:46;5.18;;;1.65;;
47960;SDS011;33721;48.852;9.936;2022-07-10T07:35:13;11.23;;;1.55;;
47960;SDS011;33721;48.852;9.936;2022-07-10T07:37:45;3.90;;;1.15;;
47960;SDS011;33721;48.852;9.936;2022-07-10T07:40:18;4.80;;;1.50;;
47960;SDS011;33721;48.852;9.936;2022-07-10T07:42:47;9.63;;;1.50;;
47960;SDS011;33721;48.852;9.936;2022-07-10T07:45:13;4.63;;;1.55;;
47960;SDS011;33721;48.852;9.936;2022-07-10T07:47:42;5.15;;;1.48;;
47960;SDS011;33721;48.852;9.936;2022-07-10T07:50:15;6.55;;;1.85;;
47960;SDS011;33721;48.852;9.936;2022-07-10T07:52:45;3.90;;;1.43;;
47960;SDS011;33721;48.852;9.936;2022-07-10T07:55:11;6.05;;;1.35;;
47960;SDS011;33721;48.852;9.936;2022-07-10T07:57:39;7.53;;;1.50;;
47960;SDS011;33721;48.852;9.936;2022-07-10T08:00:05;2.05;;;1.40;;
47960;SDS011;33721;48.852;9.936;2022-07-10T08:02:33;11.77;;;1.55;;
47960;SDS011;33721;48.852;9.936;2022-07-10T08:04:59;8.52;;;1.75;;
47960;SDS011;33721;48.852;9.936;2022-07-10T08:07:34;5.45;;;1.70;;
47960;SDS011;33721;48.852;9.936;2022-07-10T08:10:04;4.60;;;1.77;;
47960;SDS011;33721;48.852;9.936;2022-07-10T08:12:32;4.93;;;1.60;;
47960;SDS011;33721;48.852;9.936;2022-07-10T08:14:58;4.70;;;1.75;;
47960;SDS011;33721;48.852;9.936;2022-07-10T08:17:25;6.35;;;2.25;;
47960;SDS011;33721;48.852;9.936;2022-07-10T08:19:51;4.10;;;1.42;;
47960;SDS011;33721;48.852;9.936;2022-07-10T08:22:17;3.45;;;1.60;;
47960;SDS011;33721;48.852;9.936;2022-07-10T08:24:43;4.40;;;1.60;;
47960;SDS011;33721;48.852;9.936;2022-07-10T08:27:08;12.13;;;1.50;;
47960;SDS011;33721;48.852;9.936;2022-07-10T08:29:34;4.97;;;1.30;;
47960;SDS011;33721;48.852;9.936;2022-07-10T08:32:00;6.85;;;1.73;;
47960;SDS011;33721;48.852;9.936;2022-07-10T08:34:26;6.13;;;1.77;;
47960;SDS011;33721;48.852;9.936;2022-07-10T08:36:52;5.10;;;1.50;;
47960;SDS011;33721;48.852;9.936;2022-07-10T08:39:19;3.38;;;1.40;;
47960;SDS011;33721;48.852;9.936;2022-07-10T08:41:47;5.43;;;1.40;;
47960;SDS011;33721;48.852;9.936;2022-07-10T08:44:16;7.05;;;1.40;;
47960;SDS011;33721;48.852;9.936;2022-07-10T08:46:46;4.70;;;1.70;;
47960;SDS011;33721;48.852;9.936;2022-07-10T08:49:12;4.30;;;1.50;;
47960;SDS011;33721;48.852;9.936;2022-07-10T08:51:41;6.47;;;1.90;;
47960;SDS011;33721;48.852;9.936;2022-07-10T08:54:42;6.25;;;1.90;;
47960;SDS011;33721;48.852;9.936;2022-07-10T08:57:09;3.20;;;1.58;;
47960;SDS011;33721;48.852;9.936;2022-07-10T08:59:36;8.13;;;2.03;;
47960;SDS011;33721;48.852;9.936;2022-07-10T09:02:01;8.18;;;1.60;;
47960;SDS011;33721;48.852;9.936;2022-07-10T09:04:27;5.80;;;1.67;;
47960;SDS011;33721;48.852;9.936;2022-07-10T09:06:53;8.52;;;1.90;;
47960;SDS011;33721;48.852;9.936;2022-07-10T09:09:20;7.20;;;1.92;;
47960;SDS011;33721;48.852;9.936;2022-07-10T09:11:46;5.13;;;1.83;;
47960;SDS011;33721;48.852;9.936;2022-07-10T09:14:15;7.63;;;2.20;;
47960;SDS011;33721;48.852;9.936;2022-07-10T09:16:45;6.32;;;2.10;;
47960;SDS011;33721;48.852;9.936;2022-07-10T09:21:45;5.63;;;1.98;;
47960;SDS011;33721;48.852;9.936;2022-07-10T09:24:12;5.63;;;2.00;;
47960;SDS011;33721;48.852;9.936;2022-07-10T09:26:39;5.03;;;2.10;;
47960;SDS011;33721;48.852;9.936;2022-07-10T09:29:10;6.35;;;2.08;;
47960;SDS011;33721;48.852;9.936;2022-07-10T09:31:53;3.10;;;1.60;;
47960;SDS011;33721;48.852;9.936;2022-07-10T09:37:26;4.40;;;1.85;;
47960;SDS011;33721;48.852;9.936;2022-07-10T09:42:31;6.15;;;2.60;;
47960;SDS011;33721;48.852;9.936;2022-07-10T09:47:37;8.70;;;1.70;;
47960;SDS011;33721;48.852;9.936;2022-07-10T09:50:04;6.97;;;1.92;;
47960;SDS011;33721;48.852;9.936;2022-07-10T09:52:44;7.18;;;1.92;;
47960;SDS011;33721;48.852;9.936;2022-07-10T09:55:10;2.85;;;1.85;;
47960;SDS011;33721;48.852;9.936;2022-07-10T09:57:38;3.75;;;1.60;;
47960;SDS011;33721;48.852;9.936;2022-07-10T10:00:08;6.47;;;1.70;;
47960;SDS011;33721;48.852;9.936;2022-07-10T10:02:35;5.57;;;1.73;;
47960;SDS011;33721;48.852;9.936;2022-07-10T10:05:03;4.65;;;1.85;;
47960;SDS011;33721;48.852;9.936;2022-07-10T10:07:30;8.07;;;1.80;;
47960;SDS011;33721;48.852;9.936;2022-07-10T10:10:00;7.70;;;2.28;;
47960;SDS011;33721;48.852;9.936;2022-07-10T10:12:34;4.63;;;1.75;;
47960;SDS011;33721;48.852;9.936;2022-07-10T10:15:13;3.70;;;1.63;;
47960;SDS011;33721;48.852;9.936;2022-07-10T10:17:40;5.53;;;1.70;;
47960;SDS011;33721;48.852;9.936;2022-07-10T10:20:07;4.05;;;1.70;;
47960;SDS011;33721;48.852;9.936;2022-07-10T10:22:54;8.48;;;1.83;;
47960;SDS011;33721;48.852;9.936;2022-07-10T10:25:23;3.80;;;1.75;;
47960;SDS011;33721;48.852;9.936;2022-07-10T10:27:50;5.45;;;1.88;;
47960;SDS011;33721;48.852;9.936;2022-07-10T10:30:16;3.42;;;1.80;;
47960;SDS011;33721;48.852;9.936;2022-07-10T10:32:42;6.72;;;1.75;;
47960;SDS011;33721;48.852;9.936;2022-07-10T10:35:08;3.97;;;1.55;;
47960;SDS011;33721;48.852;9.936;2022-07-10T10:37:40;3.25;;;1.88;;
47960;SDS011;33721;48.852;9.936;2022-07-10T10:40:09;7.13;;;1.80;;
47960;SDS011;33721;48.852;9.936;2022-07-10T10:42:54;3.42;;;1.60;;
47960;SDS011;33721;48.852;9.936;2022-07-10T10:48:05;3.60;;;1.65;;
47960;SDS011;33721;48.852;9.936;2022-07-10T10:50:42;4.40;;;1.67;;
47960;SDS011;33721;48.852;9.936;2022-07-10T11:06:39;2.80;;;1.48;;
47960;SDS011;33721;48.852;9.936;2022-07-10T11:09:24;5.63;;;1.50;;
47960;SDS011;33721;48.852;9.936;2022-07-10T11:12:02;3.97;;;1.50;;
47960;SDS011;33721;48.852;9.936;2022-07-10T11:14:44;3.65;;;1.55;;
47960;SDS011;33721;48.852;9.936;2022-07-10T11:17:12;3.40;;;1.20;;
47960;SDS011;33721;48.852;9.936;2022-07-10T11:19:38;3.45;;;1.50;;
47960;SDS011;33721;48.852;9.936;2022-07-10T11:30:13;3.40;;;1.23;;
47960;SDS011;33721;48.852;9.936;2022-07-10T11:32:39;6.03;;;1.55;;
47960;SDS011;33721;48.852;9.936;2022-07-10T11:35:14;4.65;;;1.45;;
47960;SDS011;33721;48.852;9.936;2022-07-10T11:37:49;4.15;;;1.42;;
47960;SDS011;33721;48.852;9.936;2022-07-10T11:40:16;4.55;;;1.38;;
47960;SDS011;33721;48.852;9.936;2022-07-10T11:42:53;2.92;;;1.50;;
47960;SDS011;33721;48.852;9.936;2022-07-10T11:45:22;10.88;;;1.65;;
47960;SDS011;33721;48.852;9.936;2022-07-10T11:47:49;3.58;;;1.40;;
47960;SDS011;33721;48.852;9.936;2022-07-10T11:50:15;2.08;;;1.10;;
47960;SDS011;33721;48.852;9.936;2022-07-10T11:52:41;9.52;;;1.42;;
47960;SDS011;33721;48.852;9.936;2022-07-10T11:55:16;6.45;;;1.20;;
47960;SDS011;33721;48.852;9.936;2022-07-10T11:57:44;4.40;;;1.30;;
47960;SDS011;33721;48.852;9.936;2022-07-10T12:00:23;4.60;;;1.67;;
47960;SDS011;33721;48.852;9.936;2022-07-10T12:02:51;4.40;;;1.48;;
47960;SDS011;33721;48.852;9.936;2022-07-10T12:05:34;4.22;;;1.40;;
47960;SDS011;33721;48.852;9.936;2022-07-10T12:08:02;1.40;;;0.93;;
47960;SDS011;33721;48.852;9.936;2022-07-10T12:10:28;3.45;;;1.10;;
47960;SDS011;33721;48.852;9.936;2022-07-10T12:13:08;4.47;;;1.20;;
47960;SDS011;33721;48.852;9.936;2022-07-10T12:15:39;4.60;;;1.30;;
47960;SDS011;33721;48.852;9.936;2022-07-10T12:18:15;3.33;;;1.10;;
47960;SDS011;33721;48.852;9.936;2022-07-10T12:20:45;2.78;;;1.10;;
47960;SDS011;33721;48.852;9.936;2022-07-10T12:23:12;3.67;;;1.30;;
47960;SDS011;33721;48.852;9.936;2022-07-10T12:25:42;7.05;;;1.50;;
47960;SDS011;33721;48.852;9.936;2022-07-10T12:28:09;3.17;;;1.23;;
47960;SDS011;33721;48.852;9.936;2022-07-10T12:30:36;2.53;;;1.30;;
47960;SDS011;33721;48.852;9.936;2022-07-10T12:33:06;3.67;;;1.20;;
47960;SDS011;33721;48.852;9.936;2022-07-10T12:35:49;2.45;;;1.30;;
47960;SDS011;33721;48.852;9.936;2022-07-10T12:38:19;3.67;;;1.48;;
47960;SDS011;33721;48.852;9.936;2022-07-10T12:40:45;3.42;;;1.20;;
47960;SDS011;33721;48.852;9.936;2022-07-10T12:43:12;1.90;;;1.20;;
47960;SDS011;33721;48.852;9.936;2022-07-10T12:45:38;1.77;;;0.80;;
47960;SDS011;33721;48.852;9.936;2022-07-10T12:48:04;4.45;;;1.08;;
47960;SDS011;33721;48.852;9.936;2022-07-10T12:50:33;2.97;;;1.10;;
47960;SDS011;33721;48.852;9.936;2022-07-10T12:53:08;4.40;;;1.45;;
47960;SDS011;33721;48.852;9.936;2022-07-10T12:55:36;5.47;;;1.27;;
47960;SDS011;33721;48.852;9.936;2022-07-10T12:58:06;3.65;;;1.30;;
47960;SDS011;33721;48.852;9.936;2022-07-10T13:00:55;4.85;;;1.20;;
47960;SDS011;33721;48.852;9.936;2022-07-10T13:03:20;7.97;;;1.42;;
47960;SDS011;33721;48.852;9.936;2022-07-10T13:05:49;5.57;;;1.43;;
47960;SDS011;33721;48.852;9.936;2022-07-10T13:08:19;1.88;;;1.30;;
47960;SDS011;33721;48.852;9.936;2022-07-10T13:10:56;2.78;;;1.20;;
47960;SDS011;33721;48.852;9.936;2022-07-10T13:13:26;3.45;;;1.30;;
47960;SDS011;33721;48.852;9.936;2022-07-10T13:15:53;4.35;;;1.58;;
47960;SDS011;33721;48.852;9.936;2022-07-10T13:18:20;7.45;;;2.60;;
47960;SDS011;33721;48.852;9.936;2022-07-10T13:20:50;5.13;;;2.63;;
47960;SDS011;33721;48.852;9.936;2022-07-10T13:23:17;8.70;;;2.42;;
47960;SDS011;33721;48.852;9.936;2022-07-10T13:25:46;3.78;;;2.22;;
47960;SDS011;33721;48.852;9.936;2022-07-10T13:28:16;3.15;;;1.55;;
47960;SDS011;33721;48.852;9.936;2022-07-10T13:30:43;4.97;;;2.47;;
47960;SDS011;33721;48.852;9.936;2022-07-10T13:33:08;7.47;;;1.73;;
47960;SDS011;33721;48.852;9.936;2022-07-10T13:35:34;3.85;;;1.50;;
47960;SDS011;33721;48.852;9.936;2022-07-10T13:38:01;2.95;;;1.45;;
47960;SDS011;33721;48.852;9.936;2022-07-10T13:40:31;3.40;;;1.10;;
47960;SDS011;33721;48.852;9.936;2022-07-10T13:42:58;3.80;;;1.50;;
47960;SDS011;33721;48.852;9.936;2022-07-10T13:45:25;3.08;;;1.02;;
47960;SDS011;33721;48.852;9.936;2022-07-10T13:47:55;5.15;;;1.40;;
47960;SDS011;33721;48.852;9.936;2022-07-10T13:50:21;4.53;;;2.03;;
47960;SDS011;33721;48.852;9.936;2022-07-10T13:52:47;4.75;;;1.40;;
47960;SDS011;33721;48.852;9.936;2022-07-10T13:55:13;2.67;;;1.13;;
47960;SDS011;33721;48.852;9.936;2022-07-10T13:57:39;4.03;;;1.20;;
47960;SDS011;33721;48.852;9.936;2022-07-10T14:00:06;8.38;;;1.30;;
47960;SDS011;33721;48.852;9.936;2022-07-10T14:02:32;1.30;;;0.98;;
47960;SDS011;33721;48.852;9.936;2022-07-10T14:04:58;2.53;;;1.13;;
47960;SDS011;33721;48.852;9.936;2022-07-10T14:07:23;3.42;;;1.08;;
47960;SDS011;33721;48.852;9.936;2022-07-10T14:09:49;5.65;;;1.38;;
47960;SDS011;33721;48.852;9.936;2022-07-10T14:12:15;2.63;;;1.00;;
47960;SDS011;33721;48.852;9.936;2022-07-10T14:14:41;5.78;;;1.55;;
47960;SDS011;33721;48.852;9.936;2022-07-10T14:17:07;4.13;;;1.80;;
47960;SDS011;33721;48.852;9.936;2022-07-10T14:19:32;2.58;;;1.27;;
47960;SDS011;33721;48.852;9.936;2022-07-10T14:21:58;6.00;;;3.90;;
47960;SDS011;33721;48.852;9.936;2022-07-10T14:24:24;4.07;;;2.33;;
47960;SDS011;33721;48.852;9.936;2022-07-10T14:26:50;2.50;;;1.20;;
47960;SDS011;33721;48.852;9.936;2022-07-10T14:29:18;2.78;;;1.05;;
47960;SDS011;33721;48.852;9.936;2022-07-10T14:31:44;6.05;;;1.20;;
47960;SDS011;33721;48.852;9.936;2022-07-10T14:34:14;3.33;;;0.88;;
47960;SDS011;33721;48.852;9.936;2022-07-10T14:36:41;2.10;;;1.10;;
47960;SDS011;33721;48.852;9.936;2022-07-10T14:39:06;2.00;;;1.17;;
47960;SDS011;33721;48.852;9.936;2022-07-10T14:41:32;2.03;;;0.90;;
47960;SDS011;33721;48.852;9.936;2022-07-10T14:43:58;3.53;;;1.10;;
47960;SDS011;33721;48.852;9.936;2022-07-10T14:46:24;2.53;;;1.00;;
47960;SDS011;33721;48.852;9.936;2022-07-10T14:48:49;2.85;;;1.05;;
47960;SDS011;33721;48.852;9.936;2022-07-10T14:51:16;4.70;;;1.05;;
47960;SDS011;33721;48.852;9.936;2022-07-10T14:53:42;4.68;;;1.08;;
47960;SDS011;33721;48.852;9.936;2022-07-10T14:56:11;4.15;;;1.20;;
47960;SDS011;33721;48.852;9.936;2022-07-10T14:58:36;3.15;;;0.98;;
47960;SDS011;33721;48.852;9.936;2022-07-10T15:01:02;2.80;;;1.13;;
47960;SDS011;33721;48.852;9.936;2022-07-10T15:03:28;2.65;;;1.17;;
47960;SDS011;33721;48.852;9.936;2022-07-10T15:05:55;2.13;;;0.90;;
47960;SDS011;33721;48.852;9.936;2022-07-10T15:08:25;1.55;;;0.73;;
47960;SDS011;33721;48.852;9.936;2022-07-10T15:10:51;2.38;;;0.93;;
47960;SDS011;33721;48.852;9.936;2022-07-10T15:13:17;2.85;;;0.95;;
47960;SDS011;33721;48.852;9.936;2022-07-10T15:15:43;4.28;;;1.13;;
47960;SDS011;33721;48.852;9.936;2022-07-10T15:18:09;3.42;;;0.95;;
47960;SDS011;33721;48.852;9.936;2022-07-10T15:20:35;2.50;;;1.02;;
47960;SDS011;33721;48.852;9.936;2022-07-10T15:23:02;3.25;;;0.80;;